Time;durP1;ratioP1;P1;durP2;ratioP2;P2;SDS_P1;SDS_P2;PMS_P1;PMS_P2;Temp;Humidity;BMP_temperature;BMP_pressure;BME280_temperature;BME280_humidity;BME280_pressure;Samples;Min_cycle;Max_cycle;Signal;HPM_P1;HPM_P2
2021/12/10 00:02:35;;;;;;;;;;;;;;;;;;4164209;28;7117;-51
2021/12/10 00:04:56;;;;;;;;;;;;;;;;;;4164432;28;7119;-52
2021/12/10 00:07:18;;;;;;;;;;;;;;;;;;4164447;28;7454;-52
2021/12/10 00:09:41;;;;;;;;;;;;;;;;;;4164325;28;7070;-52
2021/12/10 00:12:06;;;;;;;;;;;;;;;;;;4164118;28;7010;-52
2021/12/10 00:14:30;;;;;;;;;;;;;;;;;;4164242;28;7022;-52
2021/12/10 00:16:51;;;;;;;;;;;;;;;;;;4164112;28;7002;-51
2021/12/10 00:19:23;;;;;;;;;;;;;;;;;;4164173;28;6994;-51
2021/12/10 00:21:44;;;;;;;;;;;;;;;;;;4163970;28;7166;-52
2021/12/10 00:24:05;;;;;;;;;;;;;;;;;;4163893;28;7053;-52
2021/12/10 00:26:27;;;;;;;;;;;;;;;;;;4164058;28;7018;-51
2021/12/10 00:28:49;;;;;;;;;;;;;;;;;;4163925;28;7259;-51
2021/12/10 00:31:18;;;;;;;;;;;;;;;;;;4164170;28;7015;-52
2021/12/10 00:33:40;;;;;;;;;;;;;;;;;;4164365;28;6990;-51
2021/12/10 00:36:01;;;;;;;;;;;;;;;;;;4164176;28;6998;-51
2021/12/10 00:38:23;;;;;;;;;;;;;;;;;;4163936;28;7034;-52
2021/12/10 00:40:45;;;;;;;;;;;;;;;;;;4164090;28;7038;-51
2021/12/10 00:43:06;;;;;;;;;;;;;;;;;;4166721;28;7058;-52
2021/12/10 00:45:28;;;;;;;;;;;;;;;;;;4167485;28;6983;-51
2021/12/10 00:47:50;;;;;;;;;;;;;;;;;;4167471;28;7077;-51
2021/12/10 00:50:12;;;;;;;;;;;;;;;;;;4166990;28;7423;-51
2021/12/10 00:52:33;;;;;;;;;;;;;;;;;;4167051;28;7212;-52
2021/12/10 00:54:54;;;;;;;;;;;;;;;;;;4167403;28;6986;-52
2021/12/10 00:57:15;;;;;;;;;;;;;;;;;;4167108;28;6990;-51
2021/12/10 00:59:37;;;;;;;;;;;;;;;;;;4167206;28;7464;-51
2021/12/10 01:02:00;;;;;;;;;;;;;;;;;;4167073;28;7120;-52
2021/12/10 01:04:23;;;;;;;;;;;;;;;;;;4167041;28;7015;-51
2021/12/10 01:06:45;;;;;;;;;;;;;;;;;;4167082;28;7129;-52
2021/12/10 01:09:07;;;;;;;;;;;;;;;;;;4167007;28;7099;-51
2021/12/10 01:11:29;;;;;;;;;;;;;;;;;;4166945;28;7073;-52
2021/12/10 01:13:51;;;;;;;;;;;;;;;;;;4166782;28;7047;-51
2021/12/10 01:23:42;;;;;;;;;;;;;;;;;;4179482;28;7023;-51
2021/12/10 01:24:31;;;;;;;;;;;;;;;;;;4182947;28;7018;-51
2021/12/10 01:26:57;;;;;;;;;;;;;;;;;;4183348;28;7171;-51
2021/12/10 01:29:20;;;;;;;;;;;;;;;;;;4183144;28;7041;-51
2021/12/10 01:31:41;;;;;;;;;;;;;;;;;;4182112;28;7161;-52
2021/12/10 01:34:04;;;;;;;;;;;;;;;;;;4183086;28;7004;-52
2021/12/10 01:36:25;;;;;;;;;;;;;;;;;;4183254;28;7531;-51
2021/12/10 01:38:48;;;;;;;;;;;;;;;;;;4182786;28;7065;-51
2021/12/10 01:41:11;;;;;;;;;;;;;;;;;;4182931;28;7006;-51
2021/12/10 01:43:35;;;;;;;;;;;;;;;;;;4182990;28;7011;-51
2021/12/10 01:46:00;;;;;;;;;;;;;;;;;;4182813;28;7080;-52
2021/12/10 01:48:23;;;;;;;;;;;;;;;;;;4182860;28;7019;-51
2021/12/10 01:50:46;;;;;;;;;;;;;;;;;;4182591;28;6995;-51
2021/12/10 01:53:08;;;;;;;;;;;;;;;;;;4181572;28;7018;-52
2021/12/10 01:55:29;;;;;;;;;;;;;;;;;;4182975;28;7014;-52
2021/12/10 01:57:51;;;;;;;;;;;;;;;;;;4182237;28;7158;-52
2021/12/10 02:03:49;;;;;;;;;;;;;;;;;;4181796;28;7049;-51
2021/12/10 02:06:12;;;;;;;;;;;;;;;;;;4170747;28;7129;-52
2021/12/10 02:08:33;;;;;;;;;;;;;;;;;;4165085;28;7192;-52
2021/12/10 02:10:54;;;;;;;;;;;;;;;;;;4165652;28;7473;-51
2021/12/10 02:13:15;;;;;;;;;;;;;;;;;;4164860;28;7061;-52
2021/12/10 02:15:36;;;;;;;;;;;;;;;;;;4164990;28;7499;-52
2021/12/10 02:17:58;;;;;;;;;;;;;;;;;;4165352;28;7175;-51
2021/12/10 02:20:21;;;;;;;;;;;;;;;;;;4164938;28;7166;-51
2021/12/10 02:22:44;;;;;;;;;;;;;;;;;;4164759;28;7003;-51
2021/12/10 02:25:06;;;;;;;;;;;;;;;;;;4165326;28;7006;-51
2021/12/10 02:27:27;;;;;;;;;;;;;;;;;;4165089;28;6997;-51
2021/12/10 02:29:48;;;;;;;;;;;;;;;;;;4164973;28;7183;-52
2021/12/10 02:32:10;;;;;;;;;;;;;;;;;;4165378;28;7399;-51
2021/12/10 02:34:31;;;;;;;;;;;;;;;;;;4165105;28;7002;-52
2021/12/10 02:36:52;;;;;;;;;;;;;;;;;;4164678;28;6995;-52
2021/12/10 02:39:17;;;;;;;;;;;;;;;;;;4165058;28;7006;-52
2021/12/10 02:41:39;;;;;;;;;;;;;;;;;;4165607;28;6970;-52
2021/12/10 02:44:01;;;;;;;;;;;;;;;;;;4165437;28;7007;-51
2021/12/10 02:46:22;;;;;;;;;;;;;;;;;;4165135;28;7006;-52
2021/12/10 02:48:43;;;;;;;;;;;;;;;;;;4164963;28;7059;-51
2021/12/10 02:51:05;;;;;;;;;;;;;;;;;;4164501;28;7022;-51
2021/12/10 02:53:29;;;;;;;;;;;;;;;;;;4165455;28;7002;-51
2021/12/10 02:55:52;;;;;;;;;;;;;;;;;;4165048;28;7006;-52
2021/12/10 02:58:14;;;;;;;;;;;;;;;;;;4165112;28;7100;-53
2021/12/10 03:00:37;;;;;;;;;;;;;;;;;;4165453;28;6966;-51
2021/12/10 03:02:58;;;;;;;;;;;;;;;;;;4165271;28;7181;-52
2021/12/10 03:05:19;;;;;;;;;;;;;;;;;;4164216;28;7316;-51
2021/12/10 03:07:41;;;;;;;;;;;;;;;;;;4165151;28;7097;-51
2021/12/10 03:10:02;;;;;;;;;;;;;;;;;;4165330;28;6974;-52
2021/12/10 03:12:25;;;;;;;;;;;;;;;;;;4164901;28;7471;-51
2021/12/10 03:14:47;;;;;;;;;;;;;;;;;;4165010;28;7010;-51
2021/12/10 03:17:09;;;;;;;;;;;;;;;;;;4164845;28;6988;-51
2021/12/10 03:19:31;;;;;;;;;;;;;;;;;;4164580;28;7006;-52
2021/12/10 03:21:52;;;;;;;;;;;;;;;;;;4164827;28;7129;-51
2021/12/10 03:24:13;;;;;;;;;;;;;;;;;;4164662;28;7317;-51
2021/12/10 03:26:35;;;;;;;;;;;;;;;;;;4164449;28;7006;-52
2021/12/10 03:28:57;;;;;;;;;;;;;;;;;;4164779;28;7007;-51
2021/12/10 03:31:19;;;;;;;;;;;;;;;;;;4164499;28;6995;-52
2021/12/10 03:33:41;;;;;;;;;;;;;;;;;;4164438;28;7412;-52
2021/12/10 03:36:03;;;;;;;;;;;;;;;;;;4164591;28;6990;-52
2021/12/10 03:38:24;;;;;;;;;;;;;;;;;;4164287;28;7034;-51
2021/12/10 03:40:46;;;;;;;;;;;;;;;;;;4164462;28;7015;-51
2021/12/10 03:43:07;;;;;;;;;;;;;;;;;;4164432;28;7172;-51
2021/12/10 03:45:32;;;;;;;;;;;;;;;;;;4164250;28;7010;-51
2021/12/10 03:47:53;;;;;;;;;;;;;;;;;;4164961;28;7412;-51
2021/12/10 03:50:20;;;;;;;;;;;;;;;;;;4164384;28;6982;-52
2021/12/10 03:52:41;;;;;;;;;;;;;;;;;;4164195;28;7006;-52
2021/12/10 03:55:03;;;;;;;;;;;;;;;;;;4164273;28;7007;-51
2021/12/10 03:57:24;;;;;;;;;;;;;;;;;;4164164;28;7015;-52
2021/12/10 03:59:47;;;;;;;;;;;;;;;;;;4164707;28;7475;-51
2021/12/10 04:02:09;;;;;;;;;;;;;;;;;;4164141;28;7496;-51
2021/12/10 04:04:31;;;;;;;;;;;;;;;;;;4164114;28;7002;-52
2021/12/10 04:06:53;;;;;;;;;;;;;;;;;;4163791;28;7006;-51
2021/12/10 04:09:14;;;;;;;;;;;;;;;;;;4164028;28;7006;-51
2021/12/10 04:11:36;;;;;;;;;;;;;;;;;;4164341;28;7007;-52
2021/12/10 04:13:57;;;;;;;;;;;;;;;;;;4163688;28;7500;-51
2021/12/10 04:16:18;;;;;;;;;;;;;;;;;;4163447;28;7002;-51
2021/12/10 04:18:41;;;;;;;;;;;;;;;;;;4177086;28;7018;-51
2021/12/10 04:21:02;;;;;;;;;;;;;;;;;;4163880;28;7038;-51
2021/12/10 04:23:24;;;;;;;;;;;;;;;;;;4163993;28;7038;-52
2021/12/10 04:25:45;;;;;;;;;;;;;;;;;;4164115;28;7006;-51
2021/12/10 04:28:07;;;;;;;;;;;;;;;;;;4163979;28;7170;-51
2021/12/10 04:30:29;;;;;;;;;;;;;;;;;;4164016;28;7240;-52
2021/12/10 04:32:50;;;;;;;;;;;;;;;;;;4163882;28;7042;-51
2021/12/10 04:35:13;;;;;;;;;;;;;;;;;;4162507;28;7498;-51
2021/12/10 04:37:34;;;;;;;;;;;;;;;;;;4163909;28;7026;-52
2021/12/10 04:39:56;;;;;;;;;;;;;;;;;;4164023;28;7212;-53
2021/12/10 04:42:18;;;;;;;;;;;;;;;;;;4163813;28;7160;-51
2021/12/10 04:44:39;;;;;;;;;;;;;;;;;;4163799;28;7018;-51
2021/12/10 04:47:00;;;;;;;;;;;;;;;;;;4164137;28;6986;-51
2021/12/10 04:49:21;;;;;;;;;;;;;;;;;;4163952;28;7002;-51
2021/12/10 04:51:45;;;;;;;;;;;;;;;;;;4164120;28;7011;-51
2021/12/10 04:54:07;;;;;;;;;;;;;;;;;;4164248;28;6990;-51
2021/12/10 04:56:28;;;;;;;;;;;;;;;;;;4163747;28;7002;-51
2021/12/10 04:58:49;;;;;;;;;;;;;;;;;;4163970;28;7007;-52
2021/12/10 05:01:11;;;;;;;;;;;;;;;;;;4163778;28;6991;-51
2021/12/10 05:03:32;;;;;;;;;;;;;;;;;;4162450;28;7514;-52
2021/12/10 05:05:59;;;;;;;;;;;;;;;;;;4163563;28;7009;-51
2021/12/10 05:08:22;;;;;;;;;;;;;;;;;;4163731;28;7411;-52
2021/12/10 05:10:43;;;;;;;;;;;;;;;;;;4163627;28;7002;-51
2021/12/10 05:13:05;;;;;;;;;;;;;;;;;;4163790;28;7160;-52
2021/12/10 05:15:27;;;;;;;;;;;;;;;;;;4156281;28;7018;-51
2021/12/10 05:17:48;;;;;;;;;;;;;;;;;;4161695;28;6997;-52
2021/12/10 05:20:12;;;;;;;;;;;;;;;;;;4162195;28;6986;-51
2021/12/10 05:22:33;;;;;;;;;;;;;;;;;;4163557;28;6990;-52
2021/12/10 05:24:56;;;;;;;;;;;;;;;;;;4162916;28;7062;-51
2021/12/10 05:27:17;;;;;;;;;;;;;;;;;;4163096;28;7131;-51
2021/12/10 05:29:38;;;;;;;;;;;;;;;;;;4166418;28;6979;-54
2021/12/10 05:32:00;;;;;;;;;;;;;;;;;;4166163;28;7727;-51
2021/12/10 05:34:21;;;;;;;;;;;;;;;;;;4166389;28;6994;-52
2021/12/10 05:36:42;;;;;;;;;;;;;;;;;;4162527;28;7165;-52
2021/12/10 05:39:04;;;;;;;;;;;;;;;;;;4166156;28;7210;-52
2021/12/10 05:41:26;;;;;;;;;;;;;;;;;;4164091;28;6990;-51
2021/12/10 05:43:48;;;;;;;;;;;;;;;;;;4164519;28;7175;-51
2021/12/10 05:46:09;;;;;;;;;;;;;;;;;;4171932;28;7076;-51
2021/12/10 05:48:30;;;;;;;;;;;;;;;;;;4183056;28;7015;-51
2021/12/10 05:50:52;;;;;;;;;;;;;;;;;;4182755;28;7162;-52
2021/12/10 05:53:13;;;;;;;;;;;;;;;;;;4182716;28;7064;-51
2021/12/10 05:55:34;;;;;;;;;;;;;;;;;;4182758;28;7162;-52
2021/12/10 05:57:57;;;;;;;;;;;;;;;;;;4182819;28;7048;-51
2021/12/10 06:00:19;;;;;;;;;;;;;;;;;;4182673;28;7010;-51
2021/12/10 06:02:40;;;;;;;;;;;;;;;;;;4182444;28;7099;-52
2021/12/10 06:05:01;;;;;;;;;;;;;;;;;;4181393;28;7002;-51
2021/12/10 06:07:22;;;;;;;;;;;;;;;;;;4178522;28;7007;-51
2021/12/10 06:09:44;;;;;;;;;;;;;;;;;;4163434;28;7045;-50
2021/12/10 06:12:06;;;;;;;;;;;;;;;;;;4163431;28;7026;-51
2021/12/10 06:14:29;;;;;;;;;;;;;;;;;;4163895;28;7002;-51
2021/12/10 06:16:52;;;;;;;;;;;;;;;;;;4164177;28;7100;-51
2021/12/10 06:19:14;;;;;;;;;;;;;;;;;;4164572;28;7080;-51
2021/12/10 06:21:35;;;;;;;;;;;;;;;;;;4164796;28;7022;-51
2021/12/10 06:23:56;;;;;;;;;;;;;;;;;;4164848;28;7018;-51
2021/12/10 06:26:18;;;;;;;;;;;;;;;;;;4165070;28;7107;-52
2021/12/10 06:28:44;;;;;;;;;;;;;;;;;;4165138;28;7049;-50
2021/12/10 06:31:07;;;;;;;;;;;;;;;;;;4162964;28;7015;-51
2021/12/10 06:33:29;;;;;;;;;;;;;;;;;;4165468;28;7037;-52
2021/12/10 06:35:51;;;;;;;;;;;;;;;;;;4165790;28;7001;-51
2021/12/10 06:38:12;;;;;;;;;;;;;;;;;;4165632;28;7006;-52
2021/12/10 06:40:34;;;;;;;;;;;;;;;;;;4164855;28;7002;-51
2021/12/10 06:42:56;;;;;;;;;;;;;;;;;;4165599;28;7394;-51
2021/12/10 06:45:21;;;;;;;;;;;;;;;;;;4165575;28;7394;-51
2021/12/10 06:47:47;;;;;;;;;;;;;;;;;;4165668;28;7006;-52
2021/12/10 06:50:09;;;;;;;;;;;;;;;;;;4165505;28;7003;-51
2021/12/10 06:52:31;;;;;;;;;;;;;;;;;;4165481;28;7007;-51
2021/12/10 06:54:52;;;;;;;;;;;;;;;;;;4165276;28;7426;-51
2021/12/10 06:57:13;;;;;;;;;;;;;;;;;;4165021;28;7151;-51
2021/12/10 06:59:35;;;;;;;;;;;;;;;;;;4165065;28;7275;-51
2021/12/10 07:01:56;;;;;;;;;;;;;;;;;;4165412;28;7421;-51
2021/12/10 07:04:19;;;;;;;;;;;;;;;;;;4165278;28;7451;-51
2021/12/10 07:06:40;;;;;;;;;;;;;;;;;;4165065;28;7006;-52
2021/12/10 07:09:02;;;;;;;;;;;;;;;;;;4165148;28;7006;-52
2021/12/10 07:11:23;;;;;;;;;;;;;;;;;;4164977;28;6982;-51
2021/12/10 07:13:45;;;;;;;;;;;;;;;;;;4165222;28;7008;-52
2021/12/10 07:16:06;;;;;;;;;;;;;;;;;;4165137;28;7010;-51
2021/12/10 07:18:27;;;;;;;;;;;;;;;;;;4165064;28;7002;-51
2021/12/10 07:20:51;;;;;;;;;;;;;;;;;;4165055;28;7015;-50
2021/12/10 07:23:13;;;;;;;;;;;;;;;;;;4164991;28;7151;-51
2021/12/10 07:25:34;;;;;;;;;;;;;;;;;;4164775;28;6990;-51
2021/12/10 07:27:55;;;;;;;;;;;;;;;;;;4164800;28;7015;-50
2021/12/10 07:30:17;;;;;;;;;;;;;;;;;;4164946;28;7155;-51
2021/12/10 07:32:38;;;;;;;;;;;;;;;;;;4164709;28;7419;-51
2021/12/10 07:34:59;;;;;;;;;;;;;;;;;;4164822;28;6998;-51
2021/12/10 07:37:22;;;;;;;;;;;;;;;;;;4164603;28;7095;-50
2021/12/10 07:39:43;;;;;;;;;;;;;;;;;;4164581;28;7081;-51
2021/12/10 07:42:06;;;;;;;;;;;;;;;;;;4164922;28;6979;-51
2021/12/10 07:44:28;;;;;;;;;;;;;;;;;;4164883;28;7167;-51
2021/12/10 07:46:50;;;;;;;;;;;;;;;;;;4164596;28;7045;-51
2021/12/10 07:49:16;;;;;;;;;;;;;;;;;;4164345;28;7194;-52
2021/12/10 07:51:38;;;;;;;;;;;;;;;;;;4164436;28;7159;-52
2021/12/10 07:54:01;;;;;;;;;;;;;;;;;;4164485;28;7021;-51
2021/12/10 07:56:22;;;;;;;;;;;;;;;;;;4164422;28;7015;-51
2021/12/10 07:58:45;;;;;;;;;;;;;;;;;;4164627;28;6982;-51
2021/12/10 08:01:06;;;;;;;;;;;;;;;;;;4164249;28;7006;-51
2021/12/10 08:03:27;;;;;;;;;;;;;;;;;;4164472;28;7186;-51
2021/12/10 08:05:49;;;;;;;;;;;;;;;;;;4164264;28;7197;-51
2021/12/10 08:08:10;;;;;;;;;;;;;;;;;;4164260;28;7011;-51
2021/12/10 08:10:33;;;;;;;;;;;;;;;;;;4164105;28;7050;-50
2021/12/10 08:12:54;;;;;;;;;;;;;;;;;;4164199;28;7010;-50
2021/12/10 08:15:16;;;;;;;;;;;;;;;;;;4164299;28;7006;-51
2021/12/10 08:17:37;;;;;;;;;;;;;;;;;;4164224;28;7029;-51
2021/12/10 08:19:59;;;;;;;;;;;;;;;;;;4164654;28;7167;-51
2021/12/10 08:22:20;;;;;;;;;;;;;;;;;;4164208;28;7015;-50
2021/12/10 08:24:42;;;;;;;;;;;;;;;;;;4164021;28;7053;-50
2021/12/10 08:27:05;;;;;;;;;;;;;;;;;;4164223;28;7155;-51
2021/12/10 08:29:26;;;;;;;;;;;;;;;;;;4164144;28;7049;-50
2021/12/10 08:31:47;;;;;;;;;;;;;;;;;;4164098;28;7065;-50
2021/12/10 08:34:08;;;;;;;;;;;;;;;;;;4164319;28;7177;-51
2021/12/10 08:36:33;;;;;;;;;;;;;;;;;;4164077;28;7010;-52
2021/12/10 08:38:54;;;;;;;;;;;;;;;;;;4163967;28;7006;-50
2021/12/10 08:41:16;;;;;;;;;;;;;;;;;;4164298;28;6974;-50
2021/12/10 08:43:39;;;;;;;;;;;;;;;;;;4163935;28;7053;-50
2021/12/10 08:46:00;;;;;;;;;;;;;;;;;;4164013;28;7042;-51
2021/12/10 08:48:22;;;;;;;;;;;;;;;;;;4163935;28;7061;-50
2021/12/10 08:50:43;;;;;;;;;;;;;;;;;;4163862;28;7027;-50
2021/12/10 08:53:05;;;;;;;;;;;;;;;;;;4163993;28;7140;-51
2021/12/10 08:55:27;;;;;;;;;;;;;;;;;;4163905;28;7003;-50
2021/12/10 08:57:48;;;;;;;;;;;;;;;;;;4164051;28;7466;-50
2021/12/10 09:00:13;;;;;;;;;;;;;;;;;;4163734;28;7355;-51
2021/12/10 09:02:38;;;;;;;;;;;;;;;;;;4163958;28;7026;-51
2021/12/10 09:04:59;;;;;;;;;;;;;;;;;;4166937;28;7119;-51
2021/12/10 09:07:21;;;;;;;;;;;;;;;;;;4166679;28;7119;-50
2021/12/10 09:09:43;;;;;;;;;;;;;;;;;;4167182;28;7409;-50
2021/12/10 09:12:06;;;;;;;;;;;;;;;;;;4166874;28;7143;-51
2021/12/10 09:14:30;;;;;;;;;;;;;;;;;;4166858;28;7006;-50
2021/12/10 09:16:53;;;;;;;;;;;;;;;;;;4166487;28;7026;-51
2021/12/10 09:19:15;;;;;;;;;;;;;;;;;;4166723;28;7043;-51
2021/12/10 09:21:36;;;;;;;;;;;;;;;;;;4167065;28;7135;-51
2021/12/10 09:24:03;;;;;;;;;;;;;;;;;;4166718;28;7003;-50
2021/12/10 09:26:27;;;;;;;;;;;;;;;;;;4166694;28;7025;-50
2021/12/10 09:28:48;;;;;;;;;;;;;;;;;;4166736;28;7034;-51
2021/12/10 09:31:10;;;;;;;;;;;;;;;;;;4166820;28;6986;-50
2021/12/10 09:33:32;;;;;;;;;;;;;;;;;;4166758;28;6990;-51
2021/12/10 09:35:53;;;;;;;;;;;;;;;;;;4166806;28;7073;-51
2021/12/10 09:38:15;;;;;;;;;;;;;;;;;;4166538;28;7006;-50
2021/12/10 09:40:37;;;;;;;;;;;;;;;;;;4165582;28;6994;-51
2021/12/10 09:42:59;;;;;;;;;;;;;;;;;;4166727;28;7076;-51
2021/12/10 09:45:20;;;;;;;;;;;;;;;;;;4166437;28;7015;-50
2021/12/10 09:47:42;;;;;;;;;;;;;;;;;;4166496;28;7015;-51
2021/12/10 09:50:05;;;;;;;;;;;;;;;;;;4166435;28;7053;-51
2021/12/10 09:52:26;;;;;;;;;;;;;;;;;;4166444;28;7160;-51
2021/12/10 09:54:47;;;;;;;;;;;;;;;;;;4172431;28;7237;-51
2021/12/10 09:57:10;;;;;;;;;;;;;;;;;;4149327;28;7027;-52
2021/12/10 09:59:32;;;;;;;;;;;;;;;;;;4153174;28;7166;-51
2021/12/10 10:01:53;;;;;;;;;;;;;;;;;;4165906;28;7010;-51
2021/12/10 10:04:17;;;;;;;;;;;;;;;;;;4165867;28;7403;-51
2021/12/10 10:06:41;;;;;;;;;;;;;;;;;;4165883;28;7003;-50
2021/12/10 10:09:02;;;;;;;;;;;;;;;;;;4153537;28;7007;-51
2021/12/10 10:11:24;;;;;;;;;;;;;;;;;;4152190;28;7037;-51
2021/12/10 10:13:46;;;;;;;;;;;;;;;;;;4165769;28;7022;-51
2021/12/10 10:16:07;;;;;;;;;;;;;;;;;;4165284;28;7006;-51
2021/12/10 10:18:29;;;;;;;;;;;;;;;;;;4159757;28;7026;-51
2021/12/10 10:20:52;;;;;;;;;;;;;;;;;;4164750;28;7174;-49
2021/12/10 10:23:15;;;;;;;;;;;;;;;;;;4165281;28;7016;-51
2021/12/10 10:25:38;;;;;;;;;;;;;;;;;;4166112;28;7228;-49
2021/12/10 10:28:06;;;;;;;;;;;;;;;;;;4165687;28;7174;-52
2021/12/10 10:30:38;;;;;;;;;;;;;;;;;;4163632;28;7319;-50
2021/12/10 10:33:00;;;;;;;;;;;;;;;;;;4165900;28;6998;-51
2021/12/10 10:35:22;;;;;;;;;;;;;;;;;;4167046;28;6994;-52
2021/12/10 10:37:44;;;;;;;;;;;;;;;;;;4166269;28;7348;-49
2021/12/10 10:40:08;;;;;;;;;;;;;;;;;;4166549;28;7051;-51
2021/12/10 10:42:30;;;;;;;;;;;;;;;;;;4165148;28;7131;-49
2021/12/10 10:44:51;;;;;;;;;;;;;;;;;;4165141;28;7006;-52
2021/12/10 10:47:13;;;;;;;;;;;;;;;;;;4164848;28;7323;-49
2021/12/10 10:49:35;;;;;;;;;;;;;;;;;;4164820;28;7088;-49
2021/12/10 10:51:56;;;;;;;;;;;;;;;;;;4165006;28;7002;-50
2021/12/10 10:54:18;;;;;;;;;;;;;;;;;;4149062;28;7191;-49
2021/12/10 10:56:42;;;;;;;;;;;;;;;;;;4148723;28;7010;-49
2021/12/10 10:59:09;;;;;;;;;;;;;;;;;;4148679;28;7204;-49
2021/12/10 11:01:33;;;;;;;;;;;;;;;;;;4148711;28;7137;-50
2021/12/10 11:03:57;;;;;;;;;;;;;;;;;;4148682;28;6982;-49
2021/12/10 11:06:20;;;;;;;;;;;;;;;;;;4148618;28;7061;-49
2021/12/10 11:08:42;;;;;;;;;;;;;;;;;;4157381;28;7002;-48
2021/12/10 11:11:09;;;;;;;;;;;;;;;;;;4165412;28;7006;-49
2021/12/10 11:13:31;;;;;;;;;;;;;;;;;;4165045;28;7022;-49
2021/12/10 11:15:57;;;;;;;;;;;;;;;;;;4164919;28;6966;-50
2021/12/10 11:18:18;;;;;;;;;;;;;;;;;;4162914;28;7006;-49
2021/12/10 11:20:42;;;;;;;;;;;;;;;;;;4164737;28;7028;-49
2021/12/10 11:23:04;;;;;;;;;;;;;;;;;;4152385;28;7160;-49
2021/12/10 11:25:26;;;;;;;;;;;;;;;;;;4164579;28;7041;-49
2021/12/10 11:27:48;;;;;;;;;;;;;;;;;;4164855;28;7214;-49
2021/12/10 11:30:12;;;;;;;;;;;;;;;;;;4164501;28;7002;-49
2021/12/10 11:32:35;;;;;;;;;;;;;;;;;;4164866;28;7007;-49
2021/12/10 11:34:57;;;;;;;;;;;;;;;;;;4163967;28;7018;-49
2021/12/10 11:37:18;;;;;;;;;;;;;;;;;;4163080;28;7084;-53
2021/12/10 11:39:43;;;;;;;;;;;;;;;;;;4164553;28;7112;-50
2021/12/10 11:42:19;;;;;;;;;;;;;;;;;;4161539;28;9475;-49
2021/12/10 11:45:04;;;;;;;;;;;;;;;;;;4163022;28;7129;-50
2021/12/10 11:47:37;;;;;;;;;;;;;;;;;;4176634;28;7178;-49
2021/12/10 11:50:00;;;;;;;;;;;;;;;;;;4163087;28;7007;-48
2021/12/10 11:52:25;;;;;;;;;;;;;;;;;;4180710;28;7048;-49
2021/12/10 11:54:47;;;;;;;;;;;;;;;;;;4157549;28;7407;-49
2021/12/10 11:57:11;;;;;;;;;;;;;;;;;;4163543;28;7057;-49
2021/12/10 11:59:32;;;;;;;;;;;;;;;;;;4164040;28;7130;-48
2021/12/10 12:01:55;;;;;;;;;;;;;;;;;;4167494;28;7033;-50
2021/12/10 12:04:19;;;;;;;;;;;;;;;;;;4180627;28;7011;-49
2021/12/10 12:06:41;;;;;;;;;;;;;;;;;;4180517;28;7002;-49
2021/12/10 12:09:02;;;;;;;;;;;;;;;;;;4156188;28;6970;-48
2021/12/10 12:11:23;;;;;;;;;;;;;;;;;;4147781;28;7025;-49
2021/12/10 12:13:54;;;;;;;;;;;;;;;;;;4147967;28;7014;-48
2021/12/10 12:16:16;;;;;;;;;;;;;;;;;;4147880;28;6995;-48
2021/12/10 12:18:39;;;;;;;;;;;;;;;;;;4156648;28;7542;-49
2021/12/10 12:21:03;;;;;;;;;;;;;;;;;;4164068;28;7397;-48
2021/12/10 12:26:04;;;;;;;;;;;;;;;;;;4162822;28;7080;-48
2021/12/10 12:28:27;;;;;;;;;;;;;;;;;;4164063;28;7413;-49
2021/12/10 12:30:52;;;;;;;;;;;;;;;;;;4163992;28;7029;-48
2021/12/10 12:33:13;;;;;;;;;;;;;;;;;;4163954;28;7002;-48
2021/12/10 12:35:35;;;;;;;;;;;;;;;;;;4163701;28;7175;-48
2021/12/10 12:38:13;;;;;;;;;;;;;;;;;;4165716;28;7003;-48
2021/12/10 12:40:34;;;;;;;;;;;;;;;;;;4163662;28;6986;-48
2021/12/10 12:42:55;;;;;;;;;;;;;;;;;;4167112;28;7032;-49
2021/12/10 12:45:16;;;;;;;;;;;;;;;;;;4160811;28;7045;-49
2021/12/10 12:47:38;;;;;;;;;;;;;;;;;;4151280;28;6986;-48
2021/12/10 12:50:01;;;;;;;;;;;;;;;;;;4166922;28;7068;-48
2021/12/10 12:52:23;;;;;;;;;;;;;;;;;;4167239;28;7141;-48
2021/12/10 12:55:00;;;;;;;;;;;;;;;;;;4150693;28;7456;-48
2021/12/10 12:57:23;;;;;;;;;;;;;;;;;;4150407;28;7054;-49
2021/12/10 12:59:44;;;;;;;;;;;;;;;;;;4150582;28;7006;-48
2021/12/10 13:02:07;;;;;;;;;;;;;;;;;;4160688;28;6978;-48
2021/12/10 13:04:31;;;;;;;;;;;;;;;;;;4172147;28;7047;-48
2021/12/10 13:06:54;;;;;;;;;;;;;;;;;;4183082;28;7018;-48
2021/12/10 13:09:16;;;;;;;;;;;;;;;;;;4154752;28;7164;-48
2021/12/10 13:11:48;;;;;;;;;;;;;;;;;;4150394;28;7002;-49
2021/12/10 13:14:14;;;;;;;;;;;;;;;;;;4153058;28;7444;-49
2021/12/10 13:16:38;;;;;;;;;;;;;;;;;;4163381;28;7002;-49
2021/12/10 13:19:00;;;;;;;;;;;;;;;;;;4166123;28;7064;-49
2021/12/10 13:21:21;;;;;;;;;;;;;;;;;;4166030;28;7003;-49
2021/12/10 13:23:43;;;;;;;;;;;;;;;;;;4165506;28;7027;-48
2021/12/10 13:26:05;;;;;;;;;;;;;;;;;;4166563;28;7010;-48
2021/12/10 13:28:26;;;;;;;;;;;;;;;;;;4166577;28;7049;-49
2021/12/10 13:30:49;;;;;;;;;;;;;;;;;;4166543;28;7242;-48
2021/12/10 13:33:11;;;;;;;;;;;;;;;;;;4164850;28;8444;-48
2021/12/10 13:35:33;;;;;;;;;;;;;;;;;;4169119;28;7022;-49
2021/12/10 13:37:55;;;;;;;;;;;;;;;;;;4175801;28;6990;-49
2021/12/10 13:40:16;;;;;;;;;;;;;;;;;;4161989;28;7116;-50
2021/12/10 13:42:38;;;;;;;;;;;;;;;;;;4165380;28;7028;-50
2021/12/10 13:45:00;;;;;;;;;;;;;;;;;;4166007;28;7058;-49
2021/12/10 13:47:26;;;;;;;;;;;;;;;;;;4166322;28;7026;-49
2021/12/10 13:49:49;;;;;;;;;;;;;;;;;;4149609;28;7604;-49
2021/12/10 13:52:10;;;;;;;;;;;;;;;;;;4151175;28;7010;-48
2021/12/10 13:54:31;;;;;;;;;;;;;;;;;;4166493;28;7019;-49
2021/12/10 13:56:53;;;;;;;;;;;;;;;;;;4165419;28;7006;-48
2021/12/10 13:59:15;;;;;;;;;;;;;;;;;;4165586;28;7010;-49
2021/12/10 14:01:36;;;;;;;;;;;;;;;;;;4149018;28;7051;-48
2021/12/10 14:04:00;;;;;;;;;;;;;;;;;;4148944;28;6991;-48
2021/12/10 14:06:25;;;;;;;;;;;;;;;;;;4149507;28;7011;-50
2021/12/10 14:09:01;;;;;;;;;;;;;;;;;;4159180;28;6971;-48
2021/12/10 14:11:29;;;;;;;;;;;;;;;;;;4165621;28;7010;-49
2021/12/10 14:14:01;;;;;;;;;;;;;;;;;;4165409;28;7006;-49
2021/12/10 14:16:27;;;;;;;;;;;;;;;;;;4163074;28;7313;-49
2021/12/10 14:18:49;;;;;;;;;;;;;;;;;;4165338;28;6990;-49
2021/12/10 14:21:12;;;;;;;;;;;;;;;;;;4165104;28;7057;-49
2021/12/10 14:23:35;;;;;;;;;;;;;;;;;;4164765;28;7011;-49
2021/12/10 14:25:57;;;;;;;;;;;;;;;;;;4148896;28;7022;-49
2021/12/10 14:28:19;;;;;;;;;;;;;;;;;;4164150;28;7279;-48
2021/12/10 14:30:41;;;;;;;;;;;;;;;;;;4165309;28;7006;-48
2021/12/10 14:33:04;;;;;;;;;;;;;;;;;;4165075;28;6990;-49
2021/12/10 14:35:25;;;;;;;;;;;;;;;;;;4162060;28;6990;-49
2021/12/10 14:37:51;;;;;;;;;;;;;;;;;;4164954;28;7415;-48
2021/12/10 14:40:13;;;;;;;;;;;;;;;;;;4163258;28;7023;-48
2021/12/10 14:42:34;;;;;;;;;;;;;;;;;;4165077;28;8042;-48
2021/12/10 14:45:01;;;;;;;;;;;;;;;;;;4165326;28;7320;-49
2021/12/10 14:47:24;;;;;;;;;;;;;;;;;;4164117;28;7023;-49
2021/12/10 14:49:45;;;;;;;;;;;;;;;;;;4164821;28;7002;-49
2021/12/10 14:52:08;;;;;;;;;;;;;;;;;;4164749;28;7017;-49
2021/12/10 14:54:31;;;;;;;;;;;;;;;;;;4148536;28;7406;-49
2021/12/10 14:56:57;;;;;;;;;;;;;;;;;;4148244;28;7376;-50
2021/12/10 14:59:20;;;;;;;;;;;;;;;;;;4153995;28;7150;-50
2021/12/10 15:01:43;;;;;;;;;;;;;;;;;;4164287;28;7088;-49
2021/12/10 15:04:05;;;;;;;;;;;;;;;;;;4164705;28;7128;-49
2021/12/10 15:06:26;;;;;;;;;;;;;;;;;;4164890;28;7127;-49
2021/12/10 15:08:50;;;;;;;;;;;;;;;;;;4154733;28;7101;-48
2021/12/10 15:11:13;;;;;;;;;;;;;;;;;;4148200;28;7026;-49
2021/12/10 15:13:36;;;;;;;;;;;;;;;;;;4147765;28;7006;-50
2021/12/10 15:16:00;;;;;;;;;;;;;;;;;;4147834;28;6982;-50
2021/12/10 15:18:31;;;;;;;;;;;;;;;;;;4148443;28;7003;-49
2021/12/10 15:20:56;;;;;;;;;;;;;;;;;;4148247;28;7010;-49
2021/12/10 15:23:17;;;;;;;;;;;;;;;;;;4154155;28;6990;-49
2021/12/10 15:25:41;;;;;;;;;;;;;;;;;;4164670;28;6994;-50
2021/12/10 15:28:05;;;;;;;;;;;;;;;;;;4164538;28;7162;-49
2021/12/10 15:30:28;;;;;;;;;;;;;;;;;;4159216;28;7006;-49
2021/12/10 15:32:50;;;;;;;;;;;;;;;;;;4148274;28;7034;-49
2021/12/10 15:35:12;;;;;;;;;;;;;;;;;;4147936;28;7006;-49
2021/12/10 15:37:33;;;;;;;;;;;;;;;;;;4147862;28;7049;-50
2021/12/10 15:39:55;;;;;;;;;;;;;;;;;;4147798;28;7154;-49
2021/12/10 15:42:17;;;;;;;;;;;;;;;;;;4148054;28;7045;-49
2021/12/10 15:44:41;;;;;;;;;;;;;;;;;;4147943;28;7175;-50
2021/12/10 15:47:02;;;;;;;;;;;;;;;;;;4164061;28;6994;-49
2021/12/10 15:49:25;;;;;;;;;;;;;;;;;;4164320;28;7135;-49
2021/12/10 15:51:47;;;;;;;;;;;;;;;;;;4164179;28;7015;-50
2021/12/10 15:54:09;;;;;;;;;;;;;;;;;;4151233;28;7367;-50
2021/12/10 15:56:31;;;;;;;;;;;;;;;;;;4147834;28;7010;-50
2021/12/10 15:58:52;;;;;;;;;;;;;;;;;;4147683;28;7069;-49
2021/12/10 16:01:16;;;;;;;;;;;;;;;;;;4147403;28;6987;-50
2021/12/10 16:03:37;;;;;;;;;;;;;;;;;;4147640;28;7121;-50
2021/12/10 16:05:59;;;;;;;;;;;;;;;;;;4147632;28;7002;-50
2021/12/10 16:08:20;;;;;;;;;;;;;;;;;;4147473;28;6990;-50
2021/12/10 16:10:43;;;;;;;;;;;;;;;;;;4152549;28;7375;-50
2021/12/10 16:13:04;;;;;;;;;;;;;;;;;;4163001;28;7104;-49
2021/12/10 16:15:26;;;;;;;;;;;;;;;;;;4163770;28;7045;-50
2021/12/10 16:17:50;;;;;;;;;;;;;;;;;;4163754;28;7006;-49
2021/12/10 16:20:12;;;;;;;;;;;;;;;;;;4164113;28;7128;-49
2021/12/10 16:22:34;;;;;;;;;;;;;;;;;;4163574;28;6986;-49
2021/12/10 16:24:55;;;;;;;;;;;;;;;;;;4147563;28;7010;-50
2021/12/10 16:27:18;;;;;;;;;;;;;;;;;;4155885;28;7050;-49
2021/12/10 16:29:40;;;;;;;;;;;;;;;;;;4163539;28;7368;-50
2021/12/10 16:32:04;;;;;;;;;;;;;;;;;;4163387;28;7158;-49
2021/12/10 16:34:27;;;;;;;;;;;;;;;;;;4163003;28;7022;-49
2021/12/10 16:36:49;;;;;;;;;;;;;;;;;;4163352;28;7119;-50
2021/12/10 16:39:10;;;;;;;;;;;;;;;;;;4163601;28;7256;-49
2021/12/10 16:41:32;;;;;;;;;;;;;;;;;;4172957;28;7414;-50
2021/12/10 16:43:54;;;;;;;;;;;;;;;;;;4180059;28;7170;-49